Time;durP1;ratioP1;P1;durP2;ratioP2;P2;SDS_P1;SDS_P2;PMS_P1;PMS_P2;Temp;Humidity;BMP_temperature;BMP_pressure;BME280_temperature;BME280_humidity;BME280_pressure;Samples;Min_cycle;Max_cycle;Signal;HPM_P1;HPM_P2
2022/05/30 00:01:12;;;;;;;3.75;2.42;;;7.20;99.90;;;;;;5074231;28;20052;-77
2022/05/30 00:03:38;;;;;;;4.78;2.05;;;7.20;99.90;;;;;;5073399;28;20034;-76
2022/05/30 00:06:11;;;;;;;5.70;2.25;;;7.20;99.90;;;;;;5073853;28;20031;-77
2022/05/30 00:08:37;;;;;;;3.25;1.92;;;7.10;99.90;;;;;;5073313;28;20106;-76
2022/05/30 00:11:09;;;;;;;4.72;1.83;;;7.10;99.90;;;;;;5073775;28;20024;-75
2022/05/30 00:13:36;;;;;;;5.00;2.20;;;7.10;99.90;;;;;;5088106;28;20031;-76
2022/05/30 00:16:09;;;;;;;4.97;2.33;;;7.10;99.90;;;;;;5093811;28;20452;-75
2022/05/30 00:18:36;;;;;;;3.30;1.90;;;7.10;99.90;;;;;;5092733;28;20035;-76
2022/05/30 00:21:02;;;;;;;3.28;2.03;;;7.10;99.90;;;;;;5093772;28;20072;-75
2022/05/30 00:23:28;;;;;;;5.03;2.42;;;7.00;99.90;;;;;;5093924;28;20061;-75
2022/05/30 00:25:54;;;;;;;2.42;1.98;;;7.00;99.90;;;;;;5092868;28;20083;-75
2022/05/30 00:28:20;;;;;;;2.53;2.10;;;7.00;99.90;;;;;;5093604;28;20055;-76
2022/05/30 00:30:48;;;;;;;3.80;2.35;;;6.90;99.90;;;;;;5075849;28;20466;-75
2022/05/30 00:33:14;;;;;;;3.92;2.03;;;6.90;99.90;;;;;;5055332;28;20421;-77
2022/05/30 00:35:41;;;;;;;4.50;2.17;;;6.90;99.90;;;;;;5073036;28;20321;-75
2022/05/30 00:38:07;;;;;;;2.67;2.22;;;6.90;99.90;;;;;;5072840;28;20597;-75
2022/05/30 00:40:35;;;;;;;3.65;2.10;;;6.80;99.90;;;;;;5072704;28;20028;-76
2022/05/30 00:43:21;;;;;;;3.45;2.17;;;6.80;99.90;;;;;;5073191;28;20040;-75
2022/05/30 00:45:47;;;;;;;6.03;2.72;;;6.80;99.90;;;;;;5072874;28;20469;-76
2022/05/30 00:48:13;;;;;;;4.95;2.58;;;6.80;99.90;;;;;;5072891;28;20036;-75
2022/05/30 00:50:39;;;;;;;4.10;2.50;;;6.70;99.90;;;;;;5072154;28;20025;-75
2022/05/30 00:53:06;;;;;;;4.53;2.60;;;6.70;99.90;;;;;;5072731;28;20028;-75
2022/05/30 00:55:32;;;;;;;5.00;2.55;;;6.70;99.90;;;;;;5072389;28;20029;-76
2022/05/30 00:57:58;;;;;;;3.83;2.80;;;6.70;99.90;;;;;;5072491;28;20496;-76
2022/05/30 01:00:26;;;;;;;5.35;2.67;;;6.70;99.90;;;;;;5054673;28;20052;-75
2022/05/30 01:08:25;;;;;;;5.47;2.80;;;6.60;99.90;;;;;;5072394;28;20040;-75
2022/05/30 01:10:51;;;;;;;4.07;2.30;;;6.60;99.90;;;;;;5071879;28;20033;-75
2022/05/30 01:13:16;;;;;;;5.13;2.92;;;6.60;99.90;;;;;;5081840;28;20028;-74
2022/05/30 01:15:42;;;;;;;7.45;2.80;;;6.50;99.90;;;;;;5092169;28;20025;-75
2022/05/30 01:18:25;;;;;;;6.75;3.00;;;6.50;99.90;;;;;;5092952;28;20449;-76
2022/05/30 01:21:35;;;;;;;5.10;2.78;;;6.50;99.90;;;;;;5092287;28;20106;-75
2022/05/30 01:24:24;;;;;;;5.75;3.05;;;6.50;99.90;;;;;;5066712;28;20155;-76
2022/05/30 01:27:06;;;;;;;4.43;2.63;;;6.50;99.90;;;;;;5078320;28;20051;-76
2022/05/30 01:29:58;;;;;;;5.13;2.83;;;6.40;99.90;;;;;;5113109;28;20036;-75
2022/05/30 01:32:24;;;;;;;7.25;4.03;;;6.40;99.90;;;;;;5112697;28;20099;-75
2022/05/30 01:34:50;;;;;;;6.70;3.08;;;6.40;99.90;;;;;;5111482;28;20115;-75
2022/05/30 01:37:16;;;;;;;6.28;2.83;;;6.40;99.90;;;;;;5105500;28;20028;-75
2022/05/30 01:39:42;;;;;;;4.22;2.70;;;6.40;99.90;;;;;;5091603;28;20023;-76
2022/05/30 01:42:08;;;;;;;4.75;2.95;;;6.40;99.90;;;;;;5092449;28;20035;-77
2022/05/30 01:44:34;;;;;;;3.80;3.30;;;6.30;99.90;;;;;;5110866;28;20165;-76
2022/05/30 01:47:00;;;;;;;5.43;3.00;;;6.30;99.90;;;;;;5112051;28;20500;-76
2022/05/30 01:49:26;;;;;;;5.78;3.30;;;6.30;99.90;;;;;;5112560;28;20376;-76
2022/05/30 01:51:54;;;;;;;4.03;3.60;;;6.30;99.90;;;;;;5111726;28;20023;-75
2022/05/30 01:54:20;;;;;;;5.68;3.42;;;6.30;99.90;;;;;;5101038;28;20028;-76
2022/05/30 01:56:46;;;;;;;5.93;3.58;;;6.30;99.90;;;;;;5091670;28;20089;-75
2022/05/30 01:59:12;;;;;;;7.00;3.58;;;6.30;99.90;;;;;;5091663;28;20028;-75
2022/05/30 02:01:40;;;;;;;6.78;3.67;;;6.30;99.90;;;;;;5091468;28;20432;-76
2022/05/30 02:04:06;;;;;;;7.13;3.30;;;6.30;99.90;;;;;;5093100;28;20144;-75
2022/05/30 02:06:35;;;;;;;7.30;3.47;;;6.20;99.90;;;;;;5092772;28;20061;-75
2022/05/30 02:09:01;;;;;;;6.38;4.03;;;6.20;99.90;;;;;;5092392;28;20036;-76
2022/05/30 02:11:28;;;;;;;5.95;3.53;;;6.20;99.90;;;;;;5092537;28;20028;-75
2022/05/30 02:13:53;;;;;;;5.68;3.50;;;6.20;99.90;;;;;;5103595;28;20439;-76
2022/05/30 02:19:05;;;;;;;4.25;2.90;;;6.20;99.90;;;;;;5112263;28;20050;-76
2022/05/30 02:21:32;;;;;;;4.60;3.33;;;6.20;99.90;;;;;;5112094;28;20028;-76
2022/05/30 02:23:58;;;;;;;6.68;3.47;;;6.20;99.90;;;;;;5111336;28;20049;-76
2022/05/30 02:26:24;;;;;;;4.43;3.55;;;6.10;99.90;;;;;;5111626;28;20098;-76
2022/05/30 02:28:50;;;;;;;4.15;2.95;;;6.10;99.90;;;;;;5090810;28;20058;-76
2022/05/30 02:31:16;;;;;;;3.60;2.72;;;6.10;99.90;;;;;;5071841;28;20477;-76
2022/05/30 02:36:41;;;;;;;9.82;4.30;;;6.00;99.90;;;;;;5070874;28;20115;-76
2022/05/30 02:39:19;;;;;;;6.13;3.70;;;6.00;99.90;;;;;;5067800;28;20029;-75
2022/05/30 02:41:45;;;;;;;6.00;3.55;;;6.00;99.90;;;;;;5066634;28;20032;-75
2022/05/30 02:44:11;;;;;;;3.47;3.17;;;5.90;99.90;;;;;;5070543;28;20025;-76
2022/05/30 02:46:37;;;;;;;6.13;3.17;;;5.90;99.90;;;;;;5051686;28;20393;-76
2022/05/30 02:49:04;;;;;;;4.90;3.25;;;5.80;99.90;;;;;;5069955;28;20024;-76
2022/05/30 02:51:30;;;;;;;6.18;3.45;;;5.80;99.90;;;;;;5070369;28;20017;-76
2022/05/30 02:53:56;;;;;;;5.25;3.35;;;5.70;99.90;;;;;;5069178;28;20588;-76
2022/05/30 02:56:22;;;;;;;6.15;3.40;;;5.70;99.90;;;;;;5070006;28;20077;-76
2022/05/30 02:58:48;;;;;;;5.03;3.03;;;5.70;99.90;;;;;;5069174;28;20056;-76
2022/05/30 03:01:14;;;;;;;6.68;3.72;;;5.60;99.90;;;;;;5070132;28;20031;-76
2022/05/30 03:03:40;;;;;;;4.72;3.17;;;5.70;99.90;;;;;;5051220;28;20032;-77
2022/05/30 03:06:06;;;;;;;3.88;3.47;;;5.70;99.90;;;;;;5051809;28;20031;-75
2022/05/30 03:08:31;;;;;;;4.15;3.15;;;5.70;99.90;;;;;;5069986;28;20025;-77
2022/05/30 03:10:57;;;;;;;5.47;3.15;;;5.60;99.90;;;;;;5071664;28;20021;-76
2022/05/30 03:13:23;;;;;;;5.68;3.10;;;5.60;99.90;;;;;;5075618;28;20031;-75
2022/05/30 03:15:48;;;;;;;4.72;3.35;;;5.60;99.90;;;;;;5072708;28;20056;-75
2022/05/30 03:18:14;;;;;;;4.88;2.88;;;5.50;99.90;;;;;;5073516;28;20192;-75
2022/05/30 03:20:40;;;;;;;6.25;3.05;;;5.50;99.90;;;;;;5072592;28;20027;-75
2022/05/30 03:23:06;;;;;;;7.93;3.75;;;5.50;99.90;;;;;;5073563;28;20039;-75
2022/05/30 03:25:32;;;;;;;6.95;3.30;;;5.50;99.90;;;;;;5073529;28;20050;-75
2022/05/30 03:27:58;;;;;;;4.97;3.72;;;5.60;99.90;;;;;;5072072;28;20775;-75
2022/05/30 03:30:25;;;;;;;6.65;3.80;;;5.60;99.90;;;;;;5070652;28;20016;-76
2022/05/30 03:32:52;;;;;;;6.90;3.72;;;5.60;99.90;;;;;;5055154;28;20024;-77
2022/05/30 03:35:18;;;;;;;4.68;3.55;;;5.60;99.90;;;;;;5073289;28;20099;-77
2022/05/30 03:37:44;;;;;;;6.32;3.38;;;5.60;99.90;;;;;;5071409;28;20028;-77
2022/05/30 03:40:13;;;;;;;5.95;3.90;;;5.60;99.90;;;;;;5073221;28;20025;-75
2022/05/30 03:42:38;;;;;;;4.32;3.38;;;5.60;99.90;;;;;;5072329;28;20035;-76
2022/05/30 03:45:07;;;;;;;8.25;3.47;;;5.60;99.90;;;;;;5071048;28;20024;-76
2022/05/30 03:47:44;;;;;;;5.80;3.72;;;5.60;99.90;;;;;;5073525;28;20086;-75
2022/05/30 03:50:16;;;;;;;5.88;3.67;;;5.60;99.90;;;;;;5071238;28;20078;-76
2022/05/30 03:52:42;;;;;;;7.88;3.75;;;5.70;99.90;;;;;;5072235;28;20082;-76
2022/05/30 03:55:14;;;;;;;5.70;3.47;;;5.70;99.90;;;;;;5072621;28;20028;-76
2022/05/30 03:57:40;;;;;;;5.13;3.58;;;5.70;99.90;;;;;;5072000;28;20040;-78
2022/05/30 04:00:12;;;;;;;4.82;3.05;;;5.70;99.90;;;;;;5072619;28;20469;-76
2022/05/30 04:02:38;;;;;;;5.75;3.42;;;5.70;99.90;;;;;;5072393;28;20099;-78
2022/05/30 04:05:05;;;;;;;5.78;3.30;;;5.70;99.90;;;;;;5072861;28;20430;-78
2022/05/30 04:07:31;;;;;;;5.95;3.63;;;5.70;99.90;;;;;;5072487;28;20036;-76
2022/05/30 04:09:57;;;;;;;6.32;3.50;;;5.70;99.90;;;;;;5072434;28;20567;-75
2022/05/30 04:12:23;;;;;;;4.65;3.63;;;5.70;99.90;;;;;;5073260;28;20529;-76
2022/05/30 04:14:56;;;;;;;4.13;3.47;;;5.80;99.90;;;;;;5072093;28;20165;-76
2022/05/30 04:17:23;;;;;;;5.82;3.78;;;5.80;99.90;;;;;;5074045;28;20036;-76
2022/05/30 04:19:50;;;;;;;7.07;3.40;;;5.80;99.90;;;;;;5073088;28;20024;-77
2022/05/30 04:22:16;;;;;;;4.82;3.60;;;5.80;99.90;;;;;;5073292;28;20024;-75
2022/05/30 04:24:42;;;;;;;8.50;3.65;;;5.80;99.90;;;;;;5072912;28;20068;-76
2022/05/30 04:27:08;;;;;;;5.25;3.75;;;5.90;99.90;;;;;;5079911;28;20083;-76
2022/05/30 04:29:34;;;;;;;5.38;3.55;;;6.00;99.90;;;;;;5093381;28;20063;-77
2022/05/30 04:32:01;;;;;;;4.95;3.58;;;6.00;99.90;;;;;;5093202;28;20024;-77
2022/05/30 04:34:27;;;;;;;8.73;3.80;;;6.10;99.90;;;;;;5102890;28;20046;-77
2022/05/30 04:36:52;;;;;;;5.75;3.42;;;6.20;99.90;;;;;;5113262;28;20467;-76
2022/05/30 04:39:19;;;;;;;4.50;3.08;;;6.20;99.90;;;;;;5113853;28;20492;-76
2022/05/30 04:41:44;;;;;;;5.00;3.65;;;6.30;99.90;;;;;;5113423;28;20369;-74
2022/05/30 04:44:10;;;;;;;6.25;4.28;;;6.40;99.90;;;;;;5106850;28;20027;-75
2022/05/30 04:46:36;;;;;;;7.78;4.10;;;6.50;99.90;;;;;;5094432;28;20056;-74
2022/05/30 04:49:01;;;;;;;6.45;4.18;;;6.60;99.90;;;;;;5093982;28;20028;-75
2022/05/30 04:51:27;;;;;;;5.20;3.33;;;6.60;99.90;;;;;;5094337;28;20024;-75
2022/05/30 04:53:53;;;;;;;4.65;3.47;;;6.70;99.90;;;;;;5095335;28;20099;-75
2022/05/30 04:56:19;;;;;;;5.03;3.65;;;6.80;99.90;;;;;;5092939;28;20036;-76
2022/05/30 04:58:49;;;;;;;4.03;2.90;;;6.90;99.90;;;;;;5092292;28;20028;-77
2022/05/30 05:01:15;;;;;;;4.43;3.70;;;7.00;99.90;;;;;;5093089;28;20151;-76
2022/05/30 05:03:42;;;;;;;7.30;3.92;;;7.10;99.90;;;;;;5092482;28;20075;-78
2022/05/30 05:06:13;;;;;;;8.23;4.20;;;7.30;99.90;;;;;;5089628;28;20544;-73
2022/05/30 05:08:51;;;;;;;7.10;4.45;;;7.50;99.90;;;;;;5091572;28;20028;-76
2022/05/30 05:11:27;;;;;;;6.57;4.10;;;7.60;99.90;;;;;;5091173;28;20024;-77
2022/05/30 05:13:53;;;;;;;9.25;4.70;;;7.80;99.90;;;;;;5091779;28;20076;-81
2022/05/30 05:16:21;;;;;;;5.35;3.90;;;7.80;99.90;;;;;;5091801;28;20028;-80
2022/05/30 05:18:47;;;;;;;7.90;4.60;;;7.80;99.90;;;;;;5091121;28;20507;-84
2022/05/30 05:21:29;;;;;;;6.97;4.03;;;7.80;99.90;;;;;;5091750;28;20022;-81
2022/05/30 05:23:56;;;;;;;5.95;4.03;;;7.90;99.90;;;;;;5089067;28;20073;-78
2022/05/30 05:26:22;;;;;;;7.05;4.22;;;7.90;99.90;;;;;;5091086;28;20027;-78
2022/05/30 05:28:48;;;;;;;4.90;4.15;;;7.90;99.90;;;;;;5070318;28;20074;-79
2022/05/30 05:31:24;;;;;;;8.60;4.15;;;8.00;99.90;;;;;;5071045;28;20103;-75
2022/05/30 05:33:50;;;;;;;4.97;3.88;;;8.00;99.90;;;;;;5065749;28;20064;-77
2022/05/30 05:36:30;;;;;;;8.50;4.28;;;8.10;99.90;;;;;;5071267;28;20035;-82
2022/05/30 05:38:56;;;;;;;10.35;4.35;;;8.10;99.90;;;;;;5069934;28;20028;-82
2022/05/30 05:41:21;;;;;;;5.93;3.90;;;8.20;99.90;;;;;;5071035;28;20027;-74
2022/05/30 05:43:48;;;;;;;5.68;4.55;;;8.30;99.90;;;;;;5071955;28;20141;-80
2022/05/30 05:46:19;;;;;;;7.70;4.20;;;8.40;99.90;;;;;;5072478;28;20051;-77
2022/05/30 05:48:45;;;;;;;7.72;4.65;;;8.60;99.90;;;;;;5068081;28;20028;-75
2022/05/30 05:51:13;;;;;;;6.88;4.22;;;8.70;99.90;;;;;;5071201;28;20058;-75
2022/05/30 05:53:39;;;;;;;7.00;4.70;;;8.80;99.90;;;;;;5070608;28;20032;-72
2022/05/30 05:56:13;;;;;;;5.13;4.20;;;8.80;99.90;;;;;;5069841;28;20044;-76
2022/05/30 05:58:39;;;;;;;7.95;4.53;;;8.80;99.90;;;;;;5069963;28;20044;-78
2022/05/30 06:01:09;;;;;;;6.07;5.03;;;8.90;99.90;;;;;;5070721;28;20062;-74
2022/05/30 06:03:35;;;;;;;10.73;5.03;;;9.00;99.90;;;;;;5074856;28;20028;-74
2022/05/30 06:06:03;;;;;;;7.18;4.53;;;9.20;99.90;;;;;;5068628;28;20025;-73
2022/05/30 06:08:29;;;;;;;9.27;5.35;;;9.30;99.90;;;;;;5069956;28;20385;-74
2022/05/30 06:11:11;;;;;;;7.13;4.30;;;9.40;99.90;;;;;;5071007;28;20032;-74
2022/05/30 06:13:43;;;;;;;7.97;5.00;;;9.40;99.90;;;;;;5070673;28;20041;-74
2022/05/30 06:16:27;;;;;;;7.65;4.32;;;9.60;99.90;;;;;;5072348;28;20389;-74
2022/05/30 06:18:55;;;;;;;5.97;4.82;;;9.70;99.90;;;;;;5067709;28;20424;-74
2022/05/30 06:21:23;;;;;;;6.25;5.05;;;9.90;99.90;;;;;;5070119;28;20081;-74
2022/05/30 06:23:49;;;;;;;7.47;5.13;;;10.00;99.90;;;;;;5067429;28;20074;-75
2022/05/30 06:26:15;;;;;;;8.75;5.47;;;10.10;99.90;;;;;;5065922;28;20389;-75
2022/05/30 06:28:41;;;;;;;13.30;5.57;;;10.30;99.90;;;;;;5089358;28;20053;-75
2022/05/30 06:31:20;;;;;;;7.35;4.75;;;10.30;99.90;;;;;;5090230;28;20020;-75
2022/05/30 06:33:47;;;;;;;8.43;5.80;;;10.40;99.90;;;;;;5086490;28;20448;-75
2022/05/30 06:36:14;;;;;;;13.48;4.85;;;10.50;99.90;;;;;;5090270;28;20024;-74
2022/05/30 06:38:41;;;;;;;11.15;5.22;;;10.60;99.90;;;;;;5089504;28;20380;-74
2022/05/30 06:41:22;;;;;;;8.23;4.53;;;10.70;99.90;;;;;;5089796;28;20112;-74
2022/05/30 06:43:52;;;;;;;8.27;4.30;;;10.90;99.90;;;;;;5087483;28;20089;-74
2022/05/30 06:46:18;;;;;;;7.73;4.67;;;11.00;99.90;;;;;;5093408;28;20023;-75
2022/05/30 06:48:47;;;;;;;12.40;5.28;;;11.10;99.90;;;;;;5091870;28;20028;-74
2022/05/30 06:51:15;;;;;;;12.97;5.40;;;11.20;99.90;;;;;;5092062;28;20063;-75
2022/05/30 06:53:44;;;;;;;10.77;5.00;;;11.20;99.90;;;;;;5092989;28;20028;-76
2022/05/30 06:56:21;;;;;;;7.78;5.10;;;11.20;99.90;;;;;;5093523;28;20106;-75
2022/05/30 06:58:55;;;;;;;14.85;6.00;;;11.20;99.90;;;;;;5090295;28;20040;-75
2022/05/30 07:01:26;;;;;;;11.55;5.65;;;11.50;99.90;;;;;;5092946;28;20032;-74
2022/05/30 07:03:52;;;;;;;9.07;5.45;;;11.60;99.90;;;;;;5093046;28;20020;-77
2022/05/30 07:06:25;;;;;;;9.30;4.78;;;11.70;99.90;;;;;;5093591;28;20379;-75
2022/05/30 07:08:51;;;;;;;7.78;4.90;;;11.60;99.90;;;;;;5092685;28;20032;-75
2022/05/30 07:11:19;;;;;;;12.68;5.25;;;11.60;99.90;;;;;;5090593;28;20020;-74
2022/05/30 07:13:45;;;;;;;11.15;5.70;;;11.80;99.90;;;;;;5092035;28;20055;-74
2022/05/30 07:16:11;;;;;;;9.20;4.78;;;11.90;99.90;;;;;;5093448;28;20060;-74
2022/05/30 07:18:39;;;;;;;8.35;4.63;;;11.90;99.90;;;;;;5090654;28;20381;-75
2022/05/30 07:21:07;;;;;;;9.07;4.65;;;12.00;99.90;;;;;;5092231;28;20064;-75
2022/05/30 07:23:35;;;;;;;11.63;5.10;;;12.10;99.90;;;;;;5093909;28;20138;-73
2022/05/30 07:26:04;;;;;;;8.60;4.68;;;12.20;99.90;;;;;;5090377;28;20339;-73
2022/05/30 07:28:30;;;;;;;6.00;3.80;;;12.30;99.90;;;;;;5074839;28;20048;-73
2022/05/30 07:31:04;;;;;;;6.10;3.50;;;12.50;99.90;;;;;;5071997;28;20032;-73
2022/05/30 07:33:30;;;;;;;6.55;3.20;;;12.50;99.90;;;;;;5072886;28;20056;-73
2022/05/30 07:35:56;;;;;;;8.65;3.42;;;12.70;99.90;;;;;;5071246;28;20405;-73
2022/05/30 07:38:21;;;;;;;6.68;3.10;;;12.80;99.90;;;;;;5071700;28;20107;-73
2022/05/30 07:40:47;;;;;;;5.25;2.85;;;12.90;99.90;;;;;;5071867;28;20028;-74
2022/05/30 07:43:14;;;;;;;6.53;3.50;;;13.00;99.90;;;;;;5071925;28;20362;-74
2022/05/30 07:45:40;;;;;;;9.02;3.10;;;13.20;99.90;;;;;;5072038;28;20503;-74
2022/05/30 07:48:07;;;;;;;11.10;3.03;;;13.30;99.90;;;;;;5072175;28;20043;-74
2022/05/30 07:50:35;;;;;;;7.30;2.75;;;13.40;99.20;;;;;;5072355;28;20033;-74
2022/05/30 07:53:00;;;;;;;5.95;3.08;;;13.50;99.40;;;;;;5071154;28;20028;-74
2022/05/30 07:55:26;;;;;;;5.88;3.47;;;13.40;99.30;;;;;;5071784;28;20029;-73
2022/05/30 07:57:52;;;;;;;5.93;2.92;;;13.40;99.10;;;;;;5071294;28;20393;-74
2022/05/30 08:00:20;;;;;;;11.02;2.92;;;13.50;99.20;;;;;;5071910;28;20103;-74
2022/05/30 08:02:46;;;;;;;10.02;2.63;;;13.60;99.20;;;;;;5071458;28;20388;-75
2022/05/30 08:05:13;;;;;;;5.88;2.10;;;13.70;97.80;;;;;;5071904;28;20116;-73
2022/05/30 08:07:39;;;;;;;7.22;2.35;;;13.70;97.50;;;;;;5072145;28;20059;-75
2022/05/30 08:10:09;;;;;;;6.57;2.58;;;13.80;97.90;;;;;;5071252;28;20104;-74
2022/05/30 08:12:35;;;;;;;7.65;2.90;;;14.00;96.60;;;;;;5071044;28;20036;-73
2022/05/30 08:15:00;;;;;;;8.07;2.20;;;14.20;96.30;;;;;;5071309;28;20608;-74
2022/05/30 08:17:26;;;;;;;2.33;1.33;;;14.40;96.20;;;;;;5071383;28;20107;-75
2022/05/30 08:19:52;;;;;;;4.20;1.23;;;14.40;94.40;;;;;;5071078;28;20118;-75
2022/05/30 08:22:18;;;;;;;5.72;1.98;;;14.60;93.40;;;;;;5073134;28;20435;-74
2022/05/30 08:24:51;;;;;;;4.72;2.40;;;14.80;94.80;;;;;;5070502;28;20036;-73
2022/05/30 08:27:16;;;;;;;7.95;2.85;;;14.80;94.60;;;;;;5070972;28;20052;-74
2022/05/30 08:29:42;;;;;;;5.22;2.47;;;14.80;94.00;;;;;;5070956;28;20366;-75
2022/05/30 08:32:08;;;;;;;5.88;2.30;;;14.80;94.60;;;;;;5071761;28;20038;-75
2022/05/30 08:34:35;;;;;;;4.60;2.00;;;15.00;92.90;;;;;;5071675;28;20020;-74
2022/05/30 08:37:01;;;;;;;6.10;2.00;;;15.00;92.60;;;;;;5068495;28;20675;-74
2022/05/30 08:42:11;;;;;;;4.47;1.40;;;15.10;91.30;;;;;;5070896;28;20063;-73
2022/05/30 08:44:37;;;;;;;5.18;1.55;;;15.30;90.10;;;;;;5073549;28;20060;-74
2022/05/30 08:47:12;;;;;;;5.03;1.60;;;15.40;90.10;;;;;;5071447;28;20029;-73
2022/05/30 08:49:46;;;;;;;3.33;1.65;;;15.60;87.50;;;;;;5072233;28;20056;-75
2022/05/30 08:52:21;;;;;;;3.30;1.40;;;15.70;86.80;;;;;;5064799;28;20033;-75
2022/05/30 08:55:18;;;;;;;2.97;1.73;;;15.90;82.90;;;;;;5071280;28;20033;-74
2022/05/30 08:57:54;;;;;;;3.50;1.50;;;;;;;;;;5064091;28;20429;-73
2022/05/30 09:00:32;;;;;;;4.72;1.70;;;;;;;;;;5071916;28;20047;-73
2022/05/30 09:03:10;;;;;;;3.65;1.48;;;;;;;;;;5064834;28;20016;-73
2022/05/30 09:05:43;;;;;;;3.13;1.63;;;;;;;;;;5072072;28;20461;-73
2022/05/30 09:08:12;;;;;;;2.25;1.40;;;;;;;;;;5064681;28;20032;-75
2022/05/30 09:10:43;;;;;;;5.07;1.20;;;16.60;99.90;;;;;;5070385;28;20025;-74
2022/05/30 09:13:19;;;;;;;5.88;1.92;;;16.60;98.90;;;;;;5071365;28;20046;-73
2022/05/30 09:15:57;;;;;;;3.80;1.50;;;16.60;93.00;;;;;;5071039;28;20418;-74
2022/05/30 09:18:30;;;;;;;2.20;1.23;;;16.40;91.70;;;;;;5071555;28;20082;-74
2022/05/30 09:20:56;;;;;;;4.13;1.30;;;16.30;92.00;;;;;;5070841;28;20039;-73
2022/05/30 09:23:24;;;;;;;7.47;1.40;;;16.40;91.30;;;;;;5079500;28;20020;-73
2022/05/30 09:26:07;;;;;;;12.43;1.60;;;16.60;90.00;;;;;;5062998;28;20029;-74
2022/05/30 09:28:39;;;;;;;3.42;1.30;;;16.70;78.10;;;;;;5070741;28;20078;-73
2022/05/30 09:31:15;;;;;;;4.25;1.38;;;17.00;75.90;;;;;;5067438;28;20370;-73
2022/05/30 09:33:47;;;;;;;4.07;1.30;;;17.10;80.90;;;;;;5071275;28;20036;-74
2022/05/30 09:36:20;;;;;;;6.07;1.55;;;17.20;78.90;;;;;;5070988;28;20052;-73
2022/05/30 09:38:49;;;;;;;9.88;1.60;;;17.20;75.20;;;;;;5070603;28;20040;-72
2022/05/30 09:41:26;;;;;;;21.27;1.85;;;17.40;70.20;;;;;;5064970;28;20060;-73
2022/05/30 09:43:56;;;;;;;6.03;1.50;;;17.60;71.50;;;;;;5070535;28;20024;-72
2022/05/30 09:46:38;;;;;;;25.98;2.40;;;18.00;68.70;;;;;;5071372;28;20056;-73
2022/05/30 09:49:09;;;;;;;9.50;1.40;;;18.20;66.10;;;;;;5070692;28;20072;-73
2022/05/30 09:51:41;;;;;;;7.45;1.52;;;18.20;65.30;;;;;;5070921;28;20029;-74
2022/05/30 09:54:10;;;;;;;23.33;2.35;;;18.30;64.90;;;;;;5071155;28;20037;-73
2022/05/30 09:56:44;;;;;;;6.47;1.63;;;18.40;65.30;;;;;;5070373;28;20362;-73
2022/05/30 09:59:30;;;;;;;5.50;1.40;;;18.60;65.20;;;;;;5064167;28;20037;-73
2022/05/30 10:01:56;;;;;;;4.88;1.10;;;18.70;63.10;;;;;;5069610;28;20497;-74
2022/05/30 10:04:38;;;;;;;2.92;1.42;;;18.70;63.10;;;;;;5070626;28;20079;-75
2022/05/30 10:07:05;;;;;;;1.83;1.10;;;18.50;62.00;;;;;;5070340;28;20025;-73
2022/05/30 10:09:34;;;;;;;10.70;1.48;;;18.10;62.70;;;;;;5070503;28;20042;-73
2022/05/30 10:12:00;;;;;;;8.77;1.63;;;17.70;62.80;;;;;;5069658;28;20040;-73
2022/05/30 10:14:32;;;;;;;5.40;1.00;;;17.40;61.90;;;;;;5070636;28;20323;-74
2022/05/30 10:17:10;;;;;;;5.03;1.70;;;17.10;62.60;;;;;;5070102;28;20032;-81
2022/05/30 10:19:40;;;;;;;8.18;1.20;;;16.90;62.30;;;;;;5069065;28;20379;-74
2022/05/30 10:28:51;;;;;;;2.83;1.13;;;17.80;60.40;;;;;;5070532;28;20060;-76
2022/05/30 10:31:36;;;;;;;1.60;0.80;;;18.20;59.70;;;;;;5069629;28;20840;-77
2022/05/30 10:34:22;;;;;;;5.40;1.10;;;18.70;58.80;;;;;;5070148;28;20020;-77
2022/05/30 10:37:19;;;;;;;3.65;0.90;;;19.20;56.30;;;;;;5062074;28;20031;-77
2022/05/30 10:40:05;;;;;;;3.78;1.05;;;19.60;55.00;;;;;;5061386;28;20036;-78
2022/05/30 10:42:46;;;;;;;2.53;0.82;;;19.80;53.50;;;;;;5069550;28;20104;-77
2022/05/30 10:45:41;;;;;;;3.33;1.00;;;19.90;52.00;;;;;;5069895;28;20024;-77
2022/05/30 10:48:11;;;;;;;3.22;0.80;;;19.60;51.50;;;;;;5064107;28;20078;-77
2022/05/30 10:50:58;;;;;;;0.82;0.60;;;19.60;51.50;;;;;;5070033;28;20042;-77
2022/05/30 10:53:43;;;;;;;3.88;0.70;;;20.00;52.10;;;;;;5066547;28;20381;-77
2022/05/30 10:56:19;;;;;;;4.57;0.75;;;20.10;50.00;;;;;;5070207;28;20028;-77
2022/05/30 10:59:07;;;;;;;1.67;0.73;;;20.20;51.00;;;;;;5069689;28;20040;-76
2022/05/30 11:01:40;;;;;;;3.42;1.00;;;20.00;49.50;;;;;;5063993;28;20112;-75
2022/05/30 11:04:45;;;;;;;1.90;1.00;;;19.90;52.30;;;;;;5069645;28;20037;-77
2022/05/30 11:07:42;;;;;;;4.28;1.20;;;20.20;52.70;;;;;;5070400;28;20093;-75
2022/05/30 11:10:37;;;;;;;2.47;0.80;;;20.60;53.10;;;;;;5041964;28;20128;-76
2022/05/30 11:13:08;;;;;;;4.40;1.15;;;20.40;52.30;;;;;;5060623;28;20056;-75
2022/05/30 11:15:40;;;;;;;3.42;1.10;;;20.50;52.70;;;;;;5070190;28;20020;-75
2022/05/30 11:18:33;;;;;;;2.30;1.17;;;20.60;53.40;;;;;;5051826;28;20040;-77
2022/05/30 11:21:08;;;;;;;3.30;1.10;;;20.60;52.50;;;;;;5043611;28;20041;-76
2022/05/30 11:23:34;;;;;;;1.27;0.90;;;20.40;51.60;;;;;;5067445;28;20412;-75
2022/05/30 11:26:15;;;;;;;1.65;0.80;;;20.20;51.60;;;;;;5068996;28;20093;-76
2022/05/30 11:28:58;;;;;;;4.32;1.08;;;19.80;52.20;;;;;;5069708;28;20131;-76
2022/05/30 11:31:39;;;;;;;1.75;0.90;;;19.50;52.50;;;;;;5070671;28;20403;-77
2022/05/30 11:34:35;;;;;;;3.55;1.10;;;19.10;51.90;;;;;;5073659;28;20614;-77
2022/05/30 11:37:30;;;;;;;1.48;0.70;;;18.80;52.70;;;;;;5067683;28;20056;-76
2022/05/30 11:40:31;;;;;;;6.00;0.95;;;18.60;51.90;;;;;;5028248;28;20060;-75
2022/05/30 11:43:35;;;;;;;3.50;0.93;;;18.50;52.80;;;;;;5072906;28;20028;-76
2022/05/30 11:46:29;;;;;;;3.08;0.90;;;18.50;53.10;;;;;;4970657;28;20034;-75
2022/05/30 11:49:12;;;;;;;3.05;0.88;;;18.60;52.00;;;;;;5025530;28;20044;-77
2022/05/30 11:51:49;;;;;;;3.33;0.90;;;19.00;52.20;;;;;;5062077;28;20068;-77
2022/05/30 11:54:17;;;;;;;2.63;0.80;;;19.60;51.30;;;;;;5056499;28;20112;-77
2022/05/30 11:57:05;;;;;;;3.42;1.20;;;20.40;49.50;;;;;;5068183;28;20513;-77
2022/05/30 11:59:49;;;;;;;1.88;1.10;;;20.80;48.60;;;;;;5061034;28;20056;-76
2022/05/30 12:02:25;;;;;;;2.72;1.00;;;21.30;48.30;;;;;;5061565;28;20045;-77
2022/05/30 12:05:14;;;;;;;1.98;1.08;;;21.70;46.80;;;;;;5062414;28;20086;-77
2022/05/30 12:08:05;;;;;;;2.10;0.88;;;21.80;46.30;;;;;;5069660;28;20057;-75
2022/05/30 12:11:02;;;;;;;3.97;1.00;;;21.80;45.40;;;;;;5061754;28;20025;-75
2022/05/30 12:13:48;;;;;;;1.17;0.88;;;22.10;82.00;;;;;;5061650;28;20021;-76
2022/05/30 12:16:19;;;;;;;1.27;0.80;;;22.40;49.20;;;;;;5056373;28;20031;-75
2022/05/30 12:24:49;;;;;;;3.58;1.30;;;;;;;;;;5068754;28;20028;-74
2022/05/30 12:27:35;;;;;;;3.13;0.90;;;;;;;;;;5072311;28;20056;-75
2022/05/30 12:30:04;;;;;;;2.53;1.10;;;;;;;;;;5072116;28;20041;-75
2022/05/30 12:32:33;;;;;;;1.33;0.90;;;;;;;;;;5072310;28;20020;-76
2022/05/30 12:37:43;;;;;;;2.28;0.85;;;;;;;;;;5072796;28;20477;-76
2022/05/30 12:40:11;;;;;;;0.80;0.68;;;;;;;;;;5053711;28;20024;-76
2022/05/30 12:42:42;;;;;;;4.90;1.38;;;;;;;;;;5072149;28;20040;-76
2022/05/30 12:45:22;;;;;;;1.40;0.98;;;;;;;;;;5071814;28;20036;-76
2022/05/30 12:47:51;;;;;;;2.75;1.02;;;;;;;;;;5046388;28;20028;-77
2022/05/30 12:50:39;;;;;;;4.65;1.20;;;;;;;;;;5072242;28;20485;-77
2022/05/30 12:53:10;;;;;;;3.72;1.20;;;;;;;;;;5070624;28;20036;-75
2022/05/30 12:55:55;;;;;;;3.60;0.98;;;;;;;;;;5079393;28;20028;-75
2022/05/30 12:58:23;;;;;;;2.47;1.00;;;;;;;;;;5073589;28;20036;-78
2022/05/30 13:00:55;;;;;;;2.22;1.10;;;;;;;;;;5071060;28;20131;-77
2022/05/30 13:03:44;;;;;;;2.55;1.00;;;;;;;;;;5071928;28;20099;-75
2022/05/30 13:06:21;;;;;;;2.83;1.33;;;;;;;;;;5071203;28;20040;-75
2022/05/30 13:08:47;;;;;;;2.08;1.20;;;;;;;;;;5071524;28;20033;-75
2022/05/30 13:11:32;;;;;;;3.47;1.02;;;;;;;;;;5070995;28;20125;-76
2022/05/30 13:14:02;;;;;;;1.33;0.73;;;;;;;;;;5071281;28;20032;-77
2022/05/30 13:16:41;;;;;;;5.70;1.10;;;;;;;;;;5071202;28;20031;-76
2022/05/30 13:19:10;;;;;;;1.33;0.97;;;;;;;;;;5070998;28;20029;-76
2022/05/30 13:21:39;;;;;;;4.85;1.20;;;;;;;;;;5071571;28;20032;-75
2022/05/30 13:24:24;;;;;;;1.83;0.93;;;;;;;;;;5070085;28;20065;-75
2022/05/30 13:26:50;;;;;;;2.47;1.10;;;;;;;;;;5070215;28;20049;-75
2022/05/30 13:29:16;;;;;;;2.40;1.20;;;;;;;;;;5071558;28;20132;-75
2022/05/30 13:31:42;;;;;;;2.88;0.95;;;;;;;;;;5071310;28;20505;-76
2022/05/30 13:34:08;;;;;;;2.05;1.23;;;;;;;;;;5070430;28;20161;-77
2022/05/30 13:36:34;;;;;;;5.25;1.23;;;;;;;;;;5053426;28;20028;-75
2022/05/30 13:39:03;;;;;;;2.33;1.20;;;;;;;;;;5070136;28;20090;-76
2022/05/30 13:41:31;;;;;;;2.40;1.10;;;;;;;;;;5071107;28;20037;-75
2022/05/30 13:43:58;;;;;;;5.55;1.15;;;;;;;;;;5070929;28;20484;-75
2022/05/30 13:46:25;;;;;;;1.45;1.00;;;;;;;;;;5070484;28;20035;-75
2022/05/30 13:48:52;;;;;;;2.67;1.25;;;;;;;;;;5069477;28;20121;-76
2022/05/30 13:51:19;;;;;;;5.85;1.48;;;;;;;;;;5070840;28;20020;-74
2022/05/30 13:53:47;;;;;;;8.35;1.73;;;;;;;;;;5065654;28;20060;-74
2022/05/30 13:56:22;;;;;;;3.72;1.00;;;;;;;;;;5077549;28;20027;-77